createdAt,value
2019-04-20T00:00:05.846Z,8.40
2019-04-20T00:02:53.974Z,8.68
2019-04-20T00:05:41.460Z,8.15
2019-04-20T00:08:33.120Z,8.33
2019-04-20T00:11:27.360Z,10.00
2019-04-20T00:14:07.114Z,8.80
2019-04-20T00:16:46.032Z,10.30
2019-04-20T00:19:36.570Z,8.58
2019-04-20T00:22:15.197Z,8.77
2019-04-20T00:25:19.145Z,8.65
2019-04-20T00:28:22.438Z,10.17
2019-04-20T00:31:04.247Z,8.30
2019-04-20T00:33:40.996Z,8.30
2019-04-20T00:36:10.012Z,10.85
2019-04-20T00:38:42.659Z,9.07
2019-04-20T00:41:29.719Z,8.33
2019-04-20T00:44:24.353Z,9.68
2019-04-20T00:47:21.903Z,8.30
2019-04-20T00:50:13.337Z,8.90
2019-04-20T00:53:00.648Z,9.13
2019-04-20T00:55:38.112Z,9.38
2019-04-20T00:58:31.604Z,8.95
2019-04-20T01:01:37.894Z,8.75
2019-04-20T01:04:25.517Z,10.48
2019-04-20T01:07:28.911Z,8.33
2019-04-20T01:10:10.922Z,8.43
2019-04-20T01:13:06.914Z,9.60
2019-04-20T01:15:54.162Z,9.45
2019-04-20T01:18:24.365Z,8.85
2019-04-20T01:21:13.041Z,9.05
2019-04-20T01:23:53.291Z,8.50
2019-04-20T01:26:31.223Z,8.90
2019-04-20T01:29:24.077Z,8.58
2019-04-20T01:32:08.045Z,8.90
2019-04-20T01:34:47.168Z,8.78
2019-04-20T01:37:33.997Z,11.10
2019-04-20T01:39:55.233Z,9.13
2019-04-20T01:42:40.375Z,8.10
2019-04-20T01:45:34.139Z,9.68
2019-04-20T01:48:23.958Z,10.45
2019-04-20T01:51:14.085Z,8.60
2019-04-20T01:57:38.580Z,9.00
2019-04-20T02:00:40.757Z,9.08
2019-04-20T02:03:48.956Z,9.13
2019-04-20T02:06:43.380Z,9.00
2019-04-20T02:09:28.035Z,8.90
2019-04-20T02:12:23.727Z,9.65
2019-04-20T02:15:03.825Z,8.45
2019-04-20T02:17:46.657Z,9.03
2019-04-20T02:20:44.337Z,9.68
2019-04-20T02:23:17.366Z,10.45
2019-04-20T02:25:48.455Z,8.78
2019-04-20T02:28:58.951Z,9.63
2019-04-20T02:40:35.941Z,8.90
2019-04-20T02:43:28.451Z,8.95
2019-04-20T02:45:49.070Z,8.95
2019-04-20T02:48:31.206Z,9.90
2019-04-20T02:51:20.222Z,10.00
2019-04-20T02:56:51.660Z,9.83
2019-04-20T03:01:50.180Z,9.37
2019-04-20T03:04:28.314Z,9.45
2019-04-20T03:07:15.679Z,8.55
2019-04-20T03:10:03.888Z,9.30
2019-04-20T03:15:46.596Z,9.50
2019-04-20T03:18:28.204Z,8.78
2019-04-20T03:21:12.775Z,9.10
2019-04-20T03:24:03.977Z,8.95
2019-04-20T03:26:38.599Z,9.00
2019-04-20T03:29:42.292Z,9.03
2019-04-20T03:35:12.093Z,8.95
2019-04-20T03:37:52.585Z,8.90
2019-04-20T03:40:29.658Z,9.25
2019-04-20T03:42:55.323Z,8.75
2019-04-20T03:45:45.984Z,8.63
2019-04-20T03:48:35.989Z,11.08
2019-04-20T03:51:26.841Z,9.83
2019-04-20T03:54:22.218Z,11.05
2019-04-20T03:57:29.320Z,11.20
2019-04-20T04:03:37.954Z,9.80
2019-04-20T04:06:11.737Z,9.43
2019-04-20T04:08:55.044Z,10.08
2019-04-20T04:11:38.246Z,10.03
2019-04-20T04:14:05.008Z,9.08
2019-04-20T04:16:51.275Z,10.70
2019-04-20T04:19:33.256Z,9.70
2019-04-20T04:22:21.187Z,9.90
2019-04-20T04:25:09.457Z,10.20
2019-04-20T04:27:53.011Z,9.40
2019-04-20T04:30:35.479Z,12.00
2019-04-20T04:33:48.996Z,10.60
2019-04-20T04:36:02.036Z,10.58
2019-04-20T04:38:37.414Z,9.60
2019-04-20T04:41:36.797Z,10.63
2019-04-20T04:44:10.951Z,10.28
2019-04-20T04:46:53.489Z,10.95
2019-04-20T04:49:39.286Z,9.58
2019-04-20T04:52:33.087Z,10.32
2019-04-20T04:55:26.029Z,10.00
2019-04-20T04:58:04.398Z,9.68
2019-04-20T05:01:01.292Z,10.23
2019-04-20T05:04:11.154Z,9.75
2019-04-20T05:06:48.085Z,11.57
2019-04-20T05:09:23.782Z,9.90
2019-04-20T05:12:17.460Z,10.13
2019-04-20T05:15:06.127Z,10.38
2019-04-20T05:17:45.259Z,11.00
2019-04-20T05:23:45.790Z,10.20
2019-04-20T05:27:01.521Z,12.63
2019-04-20T05:29:34.970Z,10.18
2019-04-20T05:32:33.743Z,11.40
2019-04-20T05:35:30.979Z,12.00
2019-04-20T05:38:28.226Z,11.53
2019-04-20T05:41:11.725Z,11.63
2019-04-20T05:43:56.549Z,11.60
2019-04-20T05:46:49.222Z,11.00
2019-04-20T05:49:35.573Z,10.23
2019-04-20T05:52:52.386Z,12.95
2019-04-20T05:55:22.427Z,11.53
2019-04-20T05:58:13.956Z,10.05
2019-04-20T06:04:03.006Z,11.00
2019-04-20T06:07:04.029Z,10.28
2019-04-20T06:09:46.387Z,10.88
2019-04-20T06:12:36.345Z,11.70
2019-04-20T06:15:20.040Z,11.30
2019-04-20T06:18:07.042Z,11.15
2019-04-20T06:20:53.492Z,10.78
2019-04-20T06:23:53.189Z,9.75
2019-04-20T06:29:05.130Z,11.70
2019-04-20T06:31:55.998Z,11.23
2019-04-20T06:34:47.868Z,10.65
2019-04-20T06:37:16.141Z,10.60
2019-04-20T06:42:42.393Z,12.30
2019-04-20T06:45:36.351Z,9.28
2019-04-20T06:48:30.831Z,9.65
2019-04-20T06:54:44.811Z,10.65
2019-04-20T06:57:31.148Z,9.48
2019-04-20T07:00:39.089Z,8.70
2019-04-20T07:03:18.414Z,9.18
2019-04-20T07:06:26.325Z,8.68
2019-04-20T07:11:42.570Z,9.13
2019-04-20T07:14:23.412Z,9.48
2019-04-20T07:17:42.041Z,9.05
2019-04-20T07:20:46.070Z,7.80
2019-04-20T07:26:02.305Z,8.25
2019-04-20T07:28:49.977Z,8.28
2019-04-20T07:31:27.763Z,8.60
2019-04-20T07:34:10.307Z,7.75
2019-04-20T07:37:20.358Z,8.78
2019-04-20T07:39:32.775Z,7.90
2019-04-20T07:42:25.449Z,8.50
2019-04-20T07:45:11.227Z,9.23
2019-04-20T07:47:46.295Z,7.83
2019-04-20T07:50:21.781Z,8.13
2019-04-20T07:53:04.297Z,7.28
2019-04-20T07:55:55.154Z,7.92
2019-04-20T07:58:29.529Z,8.20
2019-04-20T08:01:34.178Z,7.40
2019-04-20T08:07:02.126Z,7.62
2019-04-20T08:09:49.765Z,7.55
2019-04-20T08:12:58.632Z,9.05
2019-04-20T08:15:44.513Z,7.35
2019-04-20T08:18:21.375Z,8.00
2019-04-20T08:21:00.430Z,7.35
2019-04-20T08:23:38.648Z,7.30
2019-04-20T08:26:11.285Z,8.15
2019-04-20T08:28:59.728Z,7.67
2019-04-20T08:32:14.144Z,7.58
2019-04-20T08:35:02.258Z,8.53
2019-04-20T08:37:40.140Z,7.20
2019-04-20T08:40:25.389Z,7.67
2019-04-20T08:43:20.136Z,7.50
2019-04-20T08:45:52.753Z,8.48
2019-04-20T08:48:34.823Z,8.35
2019-04-20T08:51:14.560Z,6.80
2019-04-20T08:53:51.749Z,6.80
2019-04-20T08:56:29.075Z,7.05
2019-04-20T08:59:01.862Z,8.58
2019-04-20T09:01:44.491Z,7.00
2019-04-20T09:04:37.435Z,8.58
2019-04-20T09:07:16.132Z,9.20
2019-04-20T09:10:21.865Z,6.75
2019-04-20T09:12:50.676Z,6.70
2019-04-20T09:18:16.974Z,7.53
2019-04-20T09:20:58.471Z,8.23
2019-04-20T09:23:45.079Z,7.50
2019-04-20T09:26:37.551Z,8.37
2019-04-20T09:29:12.708Z,6.72
2019-04-20T09:32:09.614Z,6.93
2019-04-20T09:34:57.462Z,7.97
2019-04-20T09:40:44.876Z,7.25
2019-04-20T09:43:30.410Z,6.70
2019-04-20T09:46:11.878Z,8.03
2019-04-20T09:48:57.920Z,7.87
2019-04-20T09:51:50.075Z,7.07
2019-04-20T09:54:37.021Z,7.80
2019-04-20T09:57:22.842Z,6.83
2019-04-20T10:00:04.230Z,8.40
2019-04-20T10:02:29.838Z,7.07
2019-04-20T10:05:09.410Z,6.78
2019-04-20T10:07:56.968Z,8.67
2019-04-20T10:10:38.877Z,7.40
2019-04-20T10:13:15.599Z,7.70
2019-04-20T10:15:57.727Z,8.85
2019-04-20T10:18:41.335Z,7.05
2019-04-20T10:21:20.321Z,6.40
2019-04-20T10:24:02.784Z,6.42
2019-04-20T10:26:44.844Z,6.35
2019-04-20T10:29:25.799Z,6.43
2019-04-20T10:32:10.153Z,7.53
2019-04-20T10:34:50.567Z,7.45
2019-04-20T10:37:35.526Z,6.10
2019-04-20T10:40:31.588Z,6.45
2019-04-20T10:43:01.075Z,6.22
2019-04-20T10:45:41.943Z,6.55
2019-04-20T10:48:23.523Z,5.87
2019-04-20T10:51:05.227Z,6.55
2019-04-20T10:53:46.463Z,6.35
2019-04-20T10:56:27.876Z,6.62
2019-04-20T10:59:09.701Z,6.97
2019-04-20T11:01:50.123Z,6.15
2019-04-20T11:04:30.971Z,5.93
2019-04-20T11:07:12.531Z,6.33
2019-04-20T11:10:05.355Z,7.78
2019-04-20T11:12:38.020Z,6.35
2019-04-20T11:15:18.696Z,6.80
2019-04-20T11:17:59.625Z,7.70
2019-04-20T11:20:41.394Z,7.12
2019-04-20T11:23:22.616Z,8.20
2019-04-20T11:26:04.319Z,6.92
2019-04-20T11:28:46.232Z,6.67
2019-04-20T11:31:37.309Z,6.73
2019-04-20T11:34:10.220Z,6.22
2019-04-20T11:36:51.475Z,6.93
2019-04-20T11:39:32.918Z,6.62
2019-04-20T11:42:14.047Z,6.97
2019-04-20T11:44:54.945Z,7.42
2019-04-20T11:47:36.122Z,8.05
2019-04-20T11:50:17.849Z,8.45
2019-04-20T11:52:59.328Z,9.75
2019-04-20T11:55:40.428Z,30.48
2019-04-20T11:58:21.776Z,8.07
2019-04-20T12:04:17.186Z,15.83
2019-04-20T12:06:43.751Z,7.87
2019-04-20T12:09:25.911Z,12.37
2019-04-20T12:12:17.861Z,12.20
2019-04-20T12:14:50.554Z,7.90
2019-04-20T12:17:31.637Z,8.25
2019-04-20T12:20:12.479Z,7.50
2019-04-20T12:22:54.605Z,8.05
2019-04-20T12:25:36.747Z,7.25
2019-04-20T12:28:19.756Z,7.90
2019-04-20T12:31:09.844Z,7.67
2019-04-20T12:33:44.330Z,8.05
2019-04-20T12:39:13.111Z,8.63
2019-04-20T12:42:04.507Z,7.47
2019-04-20T12:44:51.387Z,9.78
2019-04-20T12:47:39.639Z,8.10
2019-04-20T12:50:29.828Z,7.55
2019-04-20T12:53:20.330Z,7.15
2019-04-20T12:56:08.766Z,7.72
2019-04-20T12:58:57.789Z,7.50
2019-04-20T13:01:47.128Z,6.60
2019-04-20T13:04:37.351Z,7.17
2019-04-20T13:07:26.894Z,6.75
2019-04-20T13:10:17.823Z,6.37
2019-04-20T13:19:03.515Z,6.90
2019-04-20T13:21:45.134Z,8.08
2019-04-20T13:24:27.098Z,7.00
2019-04-20T13:27:07.794Z,6.60
2019-04-20T13:29:52.235Z,7.35
2019-04-20T13:32:34.005Z,6.60
2019-04-20T13:35:14.552Z,6.20
2019-04-20T13:37:56.197Z,6.90
2019-04-20T13:40:37.695Z,6.35
2019-04-20T13:43:19.717Z,6.25
2019-04-20T13:46:00.790Z,6.72
2019-04-20T13:48:30.998Z,6.78
2019-04-20T13:51:19.359Z,6.97
2019-04-20T14:01:51.224Z,6.10
2019-04-20T14:04:44.575Z,6.03
2019-04-20T14:07:26.961Z,5.78
2019-04-20T14:10:09.087Z,6.08
2019-04-20T14:12:58.710Z,6.47
2019-04-20T14:15:33.454Z,6.90
2019-04-20T14:18:02.447Z,5.83
2019-04-20T14:20:52.071Z,6.65
2019-04-20T14:23:41.138Z,6.00
2019-04-20T14:26:10.996Z,6.17
2019-04-20T14:28:58.966Z,6.37
2019-04-20T14:31:48.027Z,5.95
2019-04-20T14:34:36.700Z,6.00
2019-04-20T14:37:24.757Z,6.17
2019-04-20T14:40:12.795Z,7.50
2019-04-20T14:43:01.692Z,6.65
2019-04-20T14:45:50.590Z,5.85
2019-04-20T14:48:38.978Z,7.58
2019-04-20T14:51:27.828Z,6.67
2019-04-20T14:54:17.136Z,8.75
2019-04-20T14:57:07.741Z,6.50
2019-04-20T15:12:04.544Z,6.50
2019-04-20T15:14:54.598Z,6.05
2019-04-20T15:17:41.662Z,6.13
2019-04-20T15:23:23.522Z,7.10
2019-04-20T15:26:04.953Z,6.40
2019-04-20T15:28:46.269Z,7.70
2019-04-20T15:31:30.344Z,6.50
2019-04-20T15:34:11.232Z,6.17
2019-04-20T15:36:52.245Z,6.45
2019-04-20T15:39:32.959Z,6.20
2019-04-20T15:42:14.971Z,7.33
2019-04-20T15:44:55.670Z,6.80
2019-04-20T15:47:36.467Z,6.25
2019-04-20T15:50:18.071Z,6.83
2019-04-20T15:53:00.812Z,7.30
2019-04-20T15:55:43.845Z,6.30
2019-04-20T15:58:26.191Z,7.12
2019-04-20T16:01:08.284Z,6.72
2019-04-20T16:03:55.279Z,5.92
2019-04-20T16:06:36.994Z,6.37
2019-04-20T16:09:17.909Z,6.70
2019-04-20T16:11:59.118Z,6.65
2019-04-20T16:14:41.651Z,6.37
2019-04-20T16:17:25.199Z,7.05
2019-04-20T16:20:09.111Z,6.70
2019-04-20T16:22:48.878Z,6.05
2019-04-20T16:25:35.389Z,6.75
2019-04-20T16:28:17.357Z,5.97
2019-04-20T16:30:59.374Z,6.33
2019-04-20T16:33:40.035Z,7.20
2019-04-20T16:36:20.896Z,8.75
2019-04-20T16:39:01.693Z,6.47
2019-04-20T16:41:42.470Z,5.80
2019-04-20T16:44:23.202Z,11.65
2019-04-20T16:47:04.111Z,6.53
2019-04-20T16:49:46.618Z,6.53
2019-04-20T16:52:28.828Z,5.97
2019-04-20T16:55:11.292Z,6.03
2019-04-20T16:57:53.044Z,6.87
2019-04-20T17:00:33.612Z,5.83
2019-04-20T17:03:15.307Z,8.85
2019-04-20T17:05:56.399Z,6.05
2019-04-20T17:08:40.804Z,6.08
2019-04-20T17:11:19.418Z,6.05
2019-04-20T17:16:59.931Z,5.70
2019-04-20T17:19:41.539Z,8.68
2019-04-20T17:22:23.320Z,7.28
2019-04-20T17:24:53.606Z,6.30
2019-04-20T17:28:01.058Z,6.43
2019-04-20T17:31:09.164Z,6.08
2019-04-20T17:34:11.436Z,9.15
2019-04-20T17:36:50.679Z,8.73
2019-04-20T17:40:03.803Z,6.35
2019-04-20T17:42:40.113Z,8.87
2019-04-20T17:45:33.409Z,8.48
2019-04-20T17:48:25.546Z,6.70
2019-04-20T17:51:22.443Z,6.45
2019-04-20T17:54:09.310Z,6.30
2019-04-20T17:56:58.245Z,5.85
2019-04-20T18:05:59.684Z,5.95
2019-04-20T18:08:49.452Z,5.87
2019-04-20T18:11:25.550Z,8.20
2019-04-20T18:14:32.786Z,7.10
2019-04-20T18:17:13.889Z,6.03
2019-04-20T18:19:49.131Z,7.22
2019-04-20T18:22:30.004Z,8.35
2019-04-20T18:25:32.801Z,6.77
2019-04-20T18:28:05.649Z,9.60
2019-04-20T18:33:34.943Z,6.30
2019-04-20T18:36:23.674Z,7.83
2019-04-20T18:39:00.637Z,9.38
2019-04-20T18:41:46.549Z,6.50
2019-04-20T18:44:27.713Z,7.43
2019-04-20T18:47:23.657Z,6.65
2019-04-20T18:49:57.227Z,7.70
2019-04-20T18:52:31.666Z,6.80
2019-04-20T18:55:17.588Z,7.25
2019-04-20T18:57:55.244Z,7.37
2019-04-20T19:00:42.186Z,7.58
2019-04-20T19:03:26.954Z,7.47
2019-04-20T19:06:02.185Z,9.48
2019-04-20T19:08:48.009Z,7.67
2019-04-20T19:11:27.040Z,7.45
2019-04-20T19:14:35.581Z,7.53
2019-04-20T19:17:46.683Z,6.97
2019-04-20T19:23:25.313Z,8.80
2019-04-20T19:26:11.985Z,7.22
2019-04-20T19:28:53.933Z,10.45
2019-04-20T19:31:46.095Z,12.03
2019-04-20T19:34:29.618Z,8.35
2019-04-20T19:37:10.348Z,11.33
2019-04-20T19:39:53.274Z,11.43
2019-04-20T19:42:37.127Z,10.98
2019-04-20T19:45:31.741Z,11.08
2019-04-20T19:48:05.723Z,10.53
2019-04-20T19:50:57.666Z,10.10
2019-04-20T19:53:33.523Z,9.27
2019-04-20T19:56:07.716Z,9.83
2019-04-20T19:58:54.269Z,9.18
2019-04-20T20:01:22.045Z,10.28
2019-04-20T20:04:06.420Z,8.63
2019-04-20T20:06:51.916Z,8.60
2019-04-20T20:09:32.437Z,8.40
2019-04-20T20:12:14.722Z,8.33
2019-04-20T20:14:55.235Z,9.88
2019-04-20T20:17:54.458Z,8.80
2019-04-20T20:20:41.243Z,9.48
2019-04-20T20:23:03.329Z,8.93
2019-04-20T20:25:48.169Z,9.50
2019-04-20T20:28:38.230Z,9.30
2019-04-20T20:31:21.394Z,9.65
2019-04-20T20:34:06.039Z,9.93
2019-04-20T20:36:44.006Z,10.82
2019-04-20T20:39:24.164Z,10.13
2019-04-20T20:42:14.305Z,11.18
2019-04-20T20:44:52.825Z,10.05
2019-04-20T20:48:01.981Z,12.23
2019-04-20T20:50:33.808Z,11.50
2019-04-20T20:53:06.392Z,12.07
2019-04-20T20:55:42.089Z,9.65
2019-04-20T20:58:25.186Z,10.08
2019-04-20T21:01:09.200Z,9.68
2019-04-20T21:03:44.180Z,9.83
2019-04-20T21:06:24.409Z,11.38
2019-04-20T21:09:05.383Z,11.10
2019-04-20T21:11:46.366Z,12.03
2019-04-20T21:14:31.754Z,11.45
2019-04-20T21:17:16.206Z,13.43
2019-04-20T21:20:08.908Z,11.63
2019-04-20T21:22:57.539Z,10.90
2019-04-20T21:25:27.712Z,10.25
2019-04-20T21:28:04.873Z,10.05
2019-04-20T21:30:48.388Z,11.35
2019-04-20T21:33:32.210Z,11.22
2019-04-20T21:36:14.530Z,12.00
2019-04-20T21:38:54.291Z,10.30
2019-04-20T21:41:35.704Z,13.30
2019-04-20T21:44:24.408Z,9.85
2019-04-20T21:47:00.329Z,11.68
2019-04-20T21:49:54.097Z,10.48
2019-04-20T21:52:35.287Z,12.03
2019-04-20T21:55:08.067Z,12.07
2019-04-20T21:57:53.256Z,11.30
2019-04-20T22:01:04.177Z,11.93
2019-04-20T22:03:34.325Z,11.22
2019-04-20T22:06:16.267Z,10.83
2019-04-20T22:09:01.087Z,10.15
2019-04-20T22:11:40.069Z,11.30
2019-04-20T22:14:24.268Z,11.08
2019-04-20T22:17:05.508Z,13.55
2019-04-20T22:20:01.521Z,11.63
2019-04-20T22:22:45.490Z,11.33
2019-04-20T22:25:28.631Z,12.43
2019-04-20T22:27:56.977Z,13.05
2019-04-20T22:30:36.271Z,11.70
2019-04-20T22:36:20.351Z,10.83
2019-04-20T22:39:09.569Z,12.93
2019-04-20T22:42:02.415Z,11.70
2019-04-20T22:44:36.476Z,14.67
2019-04-20T22:47:23.087Z,11.22
2019-04-20T22:52:53.571Z,12.88
2019-04-20T22:55:47.811Z,11.15
2019-04-20T22:58:23.653Z,12.78
2019-04-20T23:00:56.131Z,11.78
2019-04-20T23:03:32.968Z,11.85
2019-04-20T23:06:14.570Z,12.70
2019-04-20T23:08:59.356Z,12.28
2019-04-20T23:11:39.110Z,12.98
2019-04-20T23:14:22.375Z,10.88
2019-04-20T23:17:04.256Z,11.15
2019-04-20T23:19:49.441Z,12.65
2019-04-20T23:22:36.974Z,14.23
2019-04-20T23:25:11.300Z,11.25
2019-04-20T23:28:00.304Z,11.80
2019-04-20T23:30:39.391Z,12.17
2019-04-20T23:33:18.069Z,11.73
2019-04-20T23:36:02.416Z,11.33
2019-04-20T23:38:44.198Z,12.28
2019-04-20T23:41:25.857Z,11.63
2019-04-20T23:47:25.528Z,12.90
2019-04-20T23:50:30.659Z,12.73
2019-04-20T23:53:10.410Z,13.35
2019-04-20T23:55:36.006Z,14.40
2019-04-20T23:58:18.185Z,12.75
